Time;durP1;ratioP1;P1;durP2;ratioP2;P2;SDS_P1;SDS_P2;PMS_P1;PMS_P2;Temp;Humidity;BMP_temperature;BMP_pressure;BME280_temperature;BME280_humidity;BME280_pressure;Samples;Min_cycle;Max_cycle;Signal;HPM_P1;HPM_P2
2022/12/01 00:01:37;;;;;;;84.68;18.05;;;;;;;;;;5013153;28;20604;-76
2022/12/01 00:04:04;;;;;;;83.13;18.27;;;;;;;;;;5012832;28;20207;-74
2022/12/01 00:06:31;;;;;;;86.18;20.27;;;;;;;;;;5013183;28;20635;-75
2022/12/01 00:11:43;;;;;;;84.63;19.88;;;;;;;;;;5012921;28;20212;-75
2022/12/01 00:14:12;;;;;;;83.70;18.67;;;;;;;;;;5012852;28;20296;-75
2022/12/01 00:16:39;;;;;;;85.63;19.60;;;;;;;;;;5012579;28;20210;-76
2022/12/01 00:19:07;;;;;;;83.80;18.98;;;;;;;;;;5012044;28;20325;-75
2022/12/01 00:21:34;;;;;;;83.10;19.75;;;;;;;;;;5012626;28;20260;-75
2022/12/01 00:24:01;;;;;;;84.78;19.75;;;;;;;;;;5012749;28;20280;-75
2022/12/01 00:26:29;;;;;;;85.93;20.92;;;;;;;;;;5012649;28;20210;-74
2022/12/01 00:28:57;;;;;;;85.00;19.50;;;;;;;;;;5011599;28;20230;-75
2022/12/01 00:31:26;;;;;;;84.13;19.92;;;;;;;;;;5012555;28;20253;-76
2022/12/01 00:33:53;;;;;;;88.70;20.60;;;;;;;;;;5012468;28;20746;-75
2022/12/01 00:36:20;;;;;;;85.15;19.52;;;;;;;;;;5012401;28;20305;-75
2022/12/01 00:38:48;;;;;;;87.40;20.27;;;;;;;;;;5011472;28;20229;-75
2022/12/01 00:41:15;;;;;;;87.47;20.27;;;;;;;;;;5012249;28;20491;-75
2022/12/01 00:43:42;;;;;;;88.78;20.95;;;;;;;;;;5012183;28;20456;-75
2022/12/01 00:46:09;;;;;;;83.32;19.40;;;;;;;;;;5012416;28;20614;-75
2022/12/01 00:48:38;;;;;;;81.85;19.90;;;;;;;;;;5011394;28;20265;-75
2022/12/01 00:51:05;;;;;;;79.95;18.50;;;;;;;;;;5012296;28;20258;-76
2022/12/01 00:53:32;;;;;;;82.88;19.73;;;;;;;;;;5012198;28;20216;-76
2022/12/01 00:55:59;;;;;;;83.50;19.45;;;;;;;;;;5011297;28;20296;-74
2022/12/01 00:58:26;;;;;;;83.38;19.00;;;;;;;;;;5012158;28;20251;-75
2022/12/01 01:00:57;;;;;;;88.32;20.17;;;;;;;;;;5011749;28;20211;-75
2022/12/01 01:03:24;;;;;;;83.00;18.42;;;;;;;;;;5012262;28;20229;-75
2022/12/01 01:05:53;;;;;;;86.82;18.40;;;;;;;;;;5012205;28;20670;-75
2022/12/01 01:08:20;;;;;;;83.30;18.27;;;;;;;;;;5011879;28;20235;-76
2022/12/01 01:10:48;;;;;;;79.28;17.63;;;;;;;;;;5011233;28;20221;-76
2022/12/01 01:13:16;;;;;;;82.45;18.48;;;;;;;;;;5012157;28;20634;-75
2022/12/01 01:15:43;;;;;;;86.43;20.13;;;;;;;;;;5012164;28;20293;-76
2022/12/01 01:18:11;;;;;;;86.45;18.42;;;;;;;;;;5012010;28;20253;-75
2022/12/01 01:20:38;;;;;;;83.25;19.60;;;;;;;;;;5011162;28;20226;-76
2022/12/01 01:23:06;;;;;;;81.65;17.88;;;;;;;;;;5011903;28;20723;-75
2022/12/01 01:25:34;;;;;;;79.22;17.80;;;;;;;;;;5011840;28;20210;-76
2022/12/01 01:28:01;;;;;;;83.20;18.83;;;;;;;;;;5011983;28;20206;-75
2022/12/01 01:30:28;;;;;;;83.50;18.85;;;;;;;;;;5011146;28;20493;-76
2022/12/01 01:32:55;;;;;;;80.18;17.75;;;;;;;;;;5011940;28;20293;-76
2022/12/01 01:35:22;;;;;;;78.60;17.38;;;;;;;;;;5011852;28;20206;-75
2022/12/01 01:37:50;;;;;;;84.32;20.23;;;;;;;;;;5011686;28;20216;-76
2022/12/01 01:40:19;;;;;;;78.18;17.33;;;;;;;;;;5010971;28;20226;-75
2022/12/01 01:42:46;;;;;;;83.25;18.48;;;;;;;;;;5011910;28;20235;-76
2022/12/01 01:45:20;;;;;;;79.72;18.05;;;;;;;;;;5011770;28;20241;-75
2022/12/01 01:47:48;;;;;;;82.22;18.63;;;;;;;;;;5011626;28;20205;-75
2022/12/01 01:50:16;;;;;;;82.70;18.80;;;;;;;;;;5010527;28;20239;-75
2022/12/01 01:52:46;;;;;;;83.32;19.00;;;;;;;;;;5011429;28;20303;-75
2022/12/01 01:55:13;;;;;;;81.45;18.20;;;;;;;;;;5011753;28;20210;-76
2022/12/01 01:57:42;;;;;;;81.25;17.00;;;;;;;;;;5011437;28;20276;-76
2022/12/01 02:00:11;;;;;;;80.95;18.23;;;;;;;;;;5010717;28;20312;-75
2022/12/01 02:02:39;;;;;;;79.20;19.08;;;;;;;;;;5011505;28;20210;-75
2022/12/01 02:05:09;;;;;;;79.67;16.83;;;;;;;;;;5011502;28;20293;-75
2022/12/01 02:07:38;;;;;;;81.18;16.95;;;;;;;;;;5012598;28;20511;-75
2022/12/01 02:10:06;;;;;;;77.63;17.35;;;;;;;;;;5014250;28;20234;-76
2022/12/01 02:12:41;;;;;;;79.85;17.08;;;;;;;;;;5015087;28;20588;-76
2022/12/01 02:15:13;;;;;;;82.15;18.25;;;;;;;;;;5014935;28;20727;-76
2022/12/01 02:17:45;;;;;;;81.00;16.05;;;;;;;;;;5014934;28;20249;-75
2022/12/01 02:20:23;;;;;;;85.78;17.67;;;;;;;;;;5014214;28;20233;-75
2022/12/01 02:22:58;;;;;;;81.93;16.75;;;;;;;;;;5014977;28;20333;-75
2022/12/01 02:25:29;;;;;;;80.93;17.38;;;;;;;;;;5014870;28;20303;-75
2022/12/01 02:28:16;;;;;;;82.38;18.55;;;;;;;;;;5014611;28;20638;-76
2022/12/01 02:30:48;;;;;;;81.65;19.00;;;;;;;;;;5030382;28;20320;-75
2022/12/01 02:33:18;;;;;;;81.55;18.23;;;;;;;;;;5034532;28;20314;-75
2022/12/01 02:35:49;;;;;;;78.22;16.42;;;;;;;;;;5030734;28;20245;-75
2022/12/01 02:38:20;;;;;;;80.68;16.90;;;;;;;;;;5034270;28;20214;-76
2022/12/01 02:40:50;;;;;;;78.80;15.63;;;;;;;;;;5033735;28;20575;-75
2022/12/01 02:43:21;;;;;;;81.93;17.98;;;;;;;;;;5034222;28;20212;-75
2022/12/01 02:45:51;;;;;;;80.63;17.35;;;;;;;;;;5034153;28;20227;-76
2022/12/01 02:48:21;;;;;;;81.53;16.58;;;;;;;;;;5034166;28;20224;-76
2022/12/01 02:50:48;;;;;;;85.70;18.70;;;;;;;;;;5033568;28;20587;-75
2022/12/01 02:53:17;;;;;;;78.72;16.33;;;;;;;;;;5034122;28;20214;-75
2022/12/01 02:55:48;;;;;;;82.25;16.10;;;;;;;;;;5034025;28;20234;-75
2022/12/01 02:58:16;;;;;;;82.85;17.25;;;;;;;;;;5033672;28;20209;-75
2022/12/01 03:00:46;;;;;;;83.50;17.55;;;;;;;;;;5033364;28;20229;-75
2022/12/01 03:03:26;;;;;;;82.88;18.30;;;;;;;;;;5034033;28;20255;-75
2022/12/01 03:05:57;;;;;;;84.47;20.92;;;;;;;;;;5033914;28;20243;-75
2022/12/01 03:08:27;;;;;;;80.88;17.33;;;;;;;;;;5033653;28;20213;-76
2022/12/01 03:10:56;;;;;;;80.20;16.73;;;;;;;;;;5033198;28;20271;-75
2022/12/01 03:13:31;;;;;;;83.95;17.27;;;;;;;;;;5033848;28;20217;-76
2022/12/01 03:16:00;;;;;;;80.32;16.48;;;;;;;;;;5033791;28;20640;-75
2022/12/01 03:18:32;;;;;;;81.13;16.77;;;;;;;;;;5033118;28;20208;-73
2022/12/01 03:21:02;;;;;;;81.28;16.65;;;;;;;;;;5033036;28;20615;-75
2022/12/01 03:23:32;;;;;;;84.13;18.38;;;;;;;;;;5033703;28;20300;-75
2022/12/01 03:26:01;;;;;;;82.38;17.35;;;;;;;;;;5033601;28;20216;-75
2022/12/01 03:28:31;;;;;;;79.32;17.50;;;;;;;;;;5033134;28;20299;-74
2022/12/01 03:31:00;;;;;;;84.00;17.45;;;;;;;;;;5033280;28;20218;-76
2022/12/01 03:33:29;;;;;;;78.40;16.52;;;;;;;;;;5033307;28;20238;-75
2022/12/01 03:36:01;;;;;;;77.63;16.55;;;;;;;;;;5031621;28;20251;-75
2022/12/01 03:38:30;;;;;;;82.78;17.70;;;;;;;;;;5013309;28;20299;-75
2022/12/01 03:41:00;;;;;;;78.65;17.92;;;;;;;;;;5013280;28;20208;-75
2022/12/01 03:43:28;;;;;;;83.15;17.75;;;;;;;;;;5013241;28;20306;-75
2022/12/01 03:45:57;;;;;;;80.72;17.45;;;;;;;;;;5013324;28;20304;-75
2022/12/01 03:48:24;;;;;;;81.40;18.25;;;;;;;;;;5012861;28;20227;-75
2022/12/01 03:50:55;;;;;;;78.22;17.13;;;;;;;;;;5012672;28;20227;-76
2022/12/01 03:53:24;;;;;;;85.18;18.27;;;;;;;;;;5013582;28;20210;-76
2022/12/01 03:55:56;;;;;;;85.00;18.30;;;;;;;;;;5013195;28;20206;-75
2022/12/01 03:58:26;;;;;;;84.43;18.77;;;;;;;;;;5012839;28;20305;-75
2022/12/01 04:00:56;;;;;;;82.57;17.15;;;;;;;;;;5012469;28;20280;-76
2022/12/01 04:03:24;;;;;;;84.80;18.80;;;;;;;;;;5012954;28;20217;-75
2022/12/01 04:05:52;;;;;;;85.20;19.35;;;;;;;;;;5013034;28;20248;-75
2022/12/01 04:08:19;;;;;;;86.53;18.98;;;;;;;;;;5012973;28;20613;-75
2022/12/01 04:10:47;;;;;;;85.13;20.35;;;;;;;;;;5012109;28;20234;-75
2022/12/01 04:13:21;;;;;;;80.17;17.77;;;;;;;;;;5012655;28;20250;-74
2022/12/01 04:15:49;;;;;;;81.53;19.52;;;;;;;;;;5012975;28;20530;-75
2022/12/01 04:18:16;;;;;;;84.80;17.65;;;;;;;;;;5012747;28;20226;-75
2022/12/01 04:20:43;;;;;;;87.10;18.90;;;;;;;;;;5012011;28;20264;-75
2022/12/01 04:23:58;;;;;;;81.88;18.75;;;;;;;;;;5012657;28;20293;-75
2022/12/01 04:26:00;;;;;;;85.40;17.73;;;;;;;;;;5012374;28;20213;-75
2022/12/01 04:28:27;;;;;;;85.55;19.40;;;;;;;;;;5012541;28;20301;-75
2022/12/01 04:30:54;;;;;;;91.30;19.88;;;;;;;;;;5012049;28;20307;-75
2022/12/01 04:33:22;;;;;;;82.32;19.80;;;;;;;;;;5012572;28;20643;-75
2022/12/01 04:35:56;;;;;;;84.38;19.45;;;;;;;;;;5012513;28;20641;-76
2022/12/01 04:38:23;;;;;;;88.60;19.08;;;;;;;;;;5012161;28;20202;-74
2022/12/01 04:40:50;;;;;;;83.63;18.38;;;;;;;;;;5011792;28;20297;-76
2022/12/01 04:43:19;;;;;;;85.93;20.45;;;;;;;;;;5012391;28;20301;-75
2022/12/01 04:45:46;;;;;;;81.88;19.27;;;;;;;;;;5012375;28;20305;-75
2022/12/01 04:48:13;;;;;;;91.45;19.80;;;;;;;;;;5012064;28;20313;-75
2022/12/01 04:50:41;;;;;;;87.80;19.73;;;;;;;;;;5011388;28;20268;-75
2022/12/01 04:53:08;;;;;;;83.43;17.88;;;;;;;;;;5012174;28;20220;-75
2022/12/01 04:55:38;;;;;;;85.00;19.20;;;;;;;;;;5012070;28;20305;-76
2022/12/01 04:58:05;;;;;;;84.28;19.20;;;;;;;;;;5012228;28;20209;-75
2022/12/01 05:00:34;;;;;;;83.38;19.23;;;;;;;;;;5011323;28;20287;-75
2022/12/01 05:03:01;;;;;;;88.80;20.23;;;;;;;;;;5012163;28;20209;-75
2022/12/01 05:05:28;;;;;;;84.18;19.17;;;;;;;;;;5012005;28;20210;-75
2022/12/01 05:07:55;;;;;;;82.40;18.45;;;;;;;;;;5011949;28;20712;-75
2022/12/01 05:10:23;;;;;;;86.97;20.98;;;;;;;;;;5011352;28;20234;-75
2022/12/01 05:12:50;;;;;;;85.25;19.90;;;;;;;;;;5011921;28;20328;-75
2022/12/01 05:15:18;;;;;;;84.60;18.83;;;;;;;;;;5012061;28;20237;-75
2022/12/01 05:17:46;;;;;;;85.72;20.90;;;;;;;;;;5011882;28;20209;-75
2022/12/01 05:23:00;;;;;;;83.70;20.65;;;;;;;;;;5011999;28;20336;-75
2022/12/01 05:25:27;;;;;;;88.63;20.02;;;;;;;;;;5011910;28;20296;-74
2022/12/01 05:27:54;;;;;;;86.50;18.50;;;;;;;;;;5011907;28;20647;-76
2022/12/01 05:30:21;;;;;;;84.80;18.63;;;;;;;;;;5011474;28;20316;-75
2022/12/01 05:32:49;;;;;;;87.15;20.33;;;;;;;;;;5012052;28;20289;-75
2022/12/01 05:35:17;;;;;;;85.47;20.85;;;;;;;;;;5011934;28;20592;-74
2022/12/01 05:37:44;;;;;;;83.63;18.77;;;;;;;;;;5011902;28;20211;-75
2022/12/01 05:40:12;;;;;;;83.38;21.40;;;;;;;;;;5010921;28;20678;-75
2022/12/01 05:42:39;;;;;;;83.55;20.80;;;;;;;;;;5012764;28;20304;-75
2022/12/01 05:45:06;;;;;;;84.07;19.10;;;;;;;;;;5015837;28;20324;-75
2022/12/01 05:47:34;;;;;;;86.68;20.33;;;;;;;;;;5015690;28;20235;-75
2022/12/01 05:50:02;;;;;;;90.05;20.50;;;;;;;;;;5014461;28;20264;-75
2022/12/01 05:52:29;;;;;;;83.47;20.00;;;;;;;;;;5015560;28;20234;-74
2022/12/01 05:54:56;;;;;;;82.47;19.88;;;;;;;;;;5015492;28;20209;-75
2022/12/01 05:57:23;;;;;;;87.07;22.38;;;;;;;;;;5015191;28;20295;-74
2022/12/01 05:59:51;;;;;;;85.28;19.98;;;;;;;;;;5014723;28;20657;-75
2022/12/01 06:02:18;;;;;;;89.32;22.08;;;;;;;;;;5015180;28;20207;-74
2022/12/01 06:04:45;;;;;;;87.55;22.20;;;;;;;;;;5015321;28;20207;-75
2022/12/01 06:07:14;;;;;;;86.15;20.05;;;;;;;;;;5015256;28;20240;-75
2022/12/01 06:09:41;;;;;;;89.40;21.23;;;;;;;;;;5014225;28;20236;-75
2022/12/01 06:12:08;;;;;;;86.75;22.15;;;;;;;;;;5015058;28;20624;-75
2022/12/01 06:14:35;;;;;;;86.07;21.13;;;;;;;;;;5015227;28;20213;-75
2022/12/01 06:17:02;;;;;;;90.43;21.95;;;;;;;;;;5014978;28;20211;-75
2022/12/01 06:19:30;;;;;;;86.70;21.08;;;;;;;;;;5014198;28;20316;-75
2022/12/01 06:21:57;;;;;;;86.22;20.35;;;;;;;;;;5014887;28;20567;-75
2022/12/01 06:24:25;;;;;;;99.10;22.15;;;;;;;;;;5014743;28;20657;-74
2022/12/01 06:26:53;;;;;;;84.75;20.13;;;;;;;;;;5015028;28;20297;-75
2022/12/01 06:29:20;;;;;;;89.47;21.30;;;;;;;;;;5014085;28;20324;-75
2022/12/01 06:31:47;;;;;;;89.28;22.10;;;;;;;;;;5014621;28;20726;-75
2022/12/01 06:34:14;;;;;;;84.20;20.73;;;;;;;;;;5014499;28;20209;-74
2022/12/01 06:36:41;;;;;;;86.85;20.60;;;;;;;;;;5014576;28;20252;-75
2022/12/01 06:39:09;;;;;;;85.28;20.85;;;;;;;;;;5027235;28;20226;-75
2022/12/01 06:41:37;;;;;;;86.82;20.88;;;;;;;;;;5034339;28;20205;-75
2022/12/01 06:44:05;;;;;;;85.00;19.75;;;;;;;;;;5034394;28;20284;-74
2022/12/01 06:46:32;;;;;;;84.35;21.23;;;;;;;;;;5034295;28;20213;-75
2022/12/01 06:48:59;;;;;;;89.68;20.40;;;;;;;;;;5033248;28;20236;-75
2022/12/01 06:51:27;;;;;;;86.03;20.30;;;;;;;;;;5033702;28;20603;-75
2022/12/01 06:53:54;;;;;;;85.80;20.40;;;;;;;;;;5032887;28;20699;-75
2022/12/01 06:56:22;;;;;;;90.32;21.65;;;;;;;;;;5033893;28;20210;-75
2022/12/01 06:58:51;;;;;;;86.88;20.08;;;;;;;;;;5033307;28;20271;-74
2022/12/01 07:01:18;;;;;;;82.55;19.48;;;;;;;;;;5034132;28;20211;-75
2022/12/01 07:03:48;;;;;;;87.63;21.50;;;;;;;;;;5033951;28;20300;-74
2022/12/01 07:06:15;;;;;;;88.35;23.42;;;;;;;;;;5033777;28;20841;-75
2022/12/01 07:08:42;;;;;;;89.30;21.95;;;;;;;;;;5032924;28;20254;-75
2022/12/01 07:11:11;;;;;;;88.70;22.02;;;;;;;;;;5033783;28;20236;-74
2022/12/01 07:13:39;;;;;;;82.93;19.75;;;;;;;;;;5033823;28;20211;-75
2022/12/01 07:16:08;;;;;;;87.53;21.90;;;;;;;;;;5033670;28;20216;-75
2022/12/01 07:18:37;;;;;;;89.18;21.92;;;;;;;;;;5032765;28;20210;-75
2022/12/01 07:21:05;;;;;;;86.93;20.52;;;;;;;;;;5033838;28;20210;-75
2022/12/01 07:23:33;;;;;;;86.43;19.80;;;;;;;;;;5033782;28;20247;-75
2022/12/01 07:26:01;;;;;;;89.28;22.20;;;;;;;;;;5033414;28;20244;-76
2022/12/01 07:28:28;;;;;;;80.63;18.20;;;;;;;;;;5033166;28;20256;-73
2022/12/01 07:31:01;;;;;;;82.05;19.17;;;;;;;;;;5033010;28;20252;-76
2022/12/01 07:33:29;;;;;;;84.65;20.42;;;;;;;;;;5033504;28;20237;-74
2022/12/01 07:35:56;;;;;;;84.70;19.10;;;;;;;;;;5033521;28;20670;-75
2022/12/01 07:38:24;;;;;;;85.18;19.30;;;;;;;;;;5033208;28;20746;-76
2022/12/01 07:40:51;;;;;;;84.65;21.05;;;;;;;;;;5032440;28;20297;-75
2022/12/01 07:43:18;;;;;;;81.75;19.58;;;;;;;;;;5033205;28;20216;-76
2022/12/01 07:45:45;;;;;;;84.82;18.77;;;;;;;;;;5033035;28;20295;-76
2022/12/01 07:48:12;;;;;;;84.45;20.60;;;;;;;;;;5032938;28;20664;-76
2022/12/01 07:50:41;;;;;;;87.25;19.63;;;;;;;;;;5032437;28;20251;-75
2022/12/01 07:53:08;;;;;;;83.93;20.23;;;;;;;;;;5032993;28;20233;-76
2022/12/01 07:55:35;;;;;;;85.65;20.80;;;;;;;;;;5033044;28;20635;-75
2022/12/01 07:58:02;;;;;;;84.82;18.67;;;;;;;;;;5032785;28;20256;-75
2022/12/01 08:00:29;;;;;;;84.03;18.85;;;;;;;;;;5031920;28;20312;-75
2022/12/01 08:02:56;;;;;;;80.10;18.52;;;;;;;;;;5032802;28;20241;-75
2022/12/01 08:05:23;;;;;;;84.80;21.13;;;;;;;;;;5032481;28;20246;-75
2022/12/01 08:07:54;;;;;;;88.07;22.33;;;;;;;;;;5026185;28;20441;-75
2022/12/01 08:10:21;;;;;;;81.15;19.00;;;;;;;;;;5009580;28;20473;-75
2022/12/01 08:12:48;;;;;;;88.60;19.73;;;;;;;;;;5012065;28;20357;-75
2022/12/01 08:15:15;;;;;;;82.88;19.52;;;;;;;;;;5012110;28;20233;-75
2022/12/01 08:17:42;;;;;;;84.45;18.70;;;;;;;;;;5009046;28;20300;-75
2022/12/01 08:20:11;;;;;;;87.25;19.05;;;;;;;;;;5011096;28;20226;-74
2022/12/01 08:22:38;;;;;;;83.70;18.80;;;;;;;;;;5012364;28;20301;-75
2022/12/01 08:25:07;;;;;;;82.50;18.60;;;;;;;;;;5012387;28;20250;-75
2022/12/01 08:27:34;;;;;;;86.25;21.00;;;;;;;;;;5012351;28;20634;-75
2022/12/01 08:30:01;;;;;;;78.80;16.85;;;;;;;;;;5011317;28;20730;-76
2022/12/01 08:32:29;;;;;;;79.65;17.05;;;;;;;;;;5012317;28;20324;-75
2022/12/01 08:34:56;;;;;;;83.25;18.55;;;;;;;;;;5012239;28;20211;-75
2022/12/01 08:37:23;;;;;;;80.47;17.75;;;;;;;;;;5012156;28;20297;-76
2022/12/01 08:39:50;;;;;;;80.82;19.55;;;;;;;;;;5011187;28;20313;-76
2022/12/01 08:42:19;;;;;;;83.57;19.30;;;;;;;;;;5012285;28;20297;-76
2022/12/01 08:44:47;;;;;;;81.95;19.60;;;;;;;;;;5012323;28;20214;-76
2022/12/01 08:47:14;;;;;;;80.25;16.95;;;;;;;;;;5011283;28;20236;-76
2022/12/01 08:49:41;;;;;;;76.78;16.65;;;;;;;;;;5007719;28;20322;-76
2022/12/01 08:52:08;;;;;;;84.20;18.52;;;;;;;;;;5011951;28;20229;-74
2022/12/01 08:54:35;;;;;;;84.93;19.45;;;;;;;;;;5011806;28;20302;-76
2022/12/01 08:57:02;;;;;;;79.33;17.70;;;;;;;;;;5012060;28;20297;-76
2022/12/01 08:59:31;;;;;;;80.05;17.55;;;;;;;;;;5011070;28;20508;-76
2022/12/01 09:01:58;;;;;;;82.50;17.58;;;;;;;;;;5011958;28;20817;-76
2022/12/01 09:04:26;;;;;;;85.38;18.67;;;;;;;;;;5011817;28;20305;-75
2022/12/01 09:06:54;;;;;;;84.80;18.17;;;;;;;;;;5011495;28;20735;-76
2022/12/01 09:09:22;;;;;;;84.10;19.88;;;;;;;;;;5010415;28;20701;-75
2022/12/01 09:11:51;;;;;;;81.97;18.45;;;;;;;;;;5011297;28;20211;-73
2022/12/01 09:14:18;;;;;;;79.30;17.75;;;;;;;;;;5011788;28;20209;-74
2022/12/01 09:16:48;;;;;;;81.50;18.70;;;;;;;;;;5011551;28;20214;-73
2022/12/01 09:19:16;;;;;;;83.50;19.80;;;;;;;;;;5014864;28;20241;-74
2022/12/01 09:21:44;;;;;;;78.65;18.40;;;;;;;;;;5030499;28;20209;-74
2022/12/01 09:24:11;;;;;;;79.50;17.48;;;;;;;;;;5035552;28;20209;-73
2022/12/01 09:26:39;;;;;;;81.28;18.33;;;;;;;;;;5035097;28;20212;-74
2022/12/01 09:29:06;;;;;;;80.68;16.67;;;;;;;;;;5034521;28;20317;-73
2022/12/01 09:31:34;;;;;;;82.90;18.88;;;;;;;;;;5035651;28;20241;-74
2022/12/01 09:34:04;;;;;;;81.32;18.17;;;;;;;;;;5034951;28;20233;-73
2022/12/01 09:36:31;;;;;;;86.00;20.00;;;;;;;;;;5035294;28;20239;-73
2022/12/01 09:38:59;;;;;;;79.60;18.17;;;;;;;;;;5034061;28;20261;-74
2022/12/01 09:41:27;;;;;;;81.25;18.00;;;;;;;;;;5035276;28;20863;-74
2022/12/01 09:43:57;;;;;;;87.07;19.83;;;;;;;;;;5035015;28;20212;-74
2022/12/01 09:46:26;;;;;;;79.00;18.17;;;;;;;;;;5034835;28;20555;-74
2022/12/01 09:48:56;;;;;;;79.78;19.23;;;;;;;;;;5034228;28;20524;-74
2022/12/01 09:51:27;;;;;;;79.83;17.83;;;;;;;;;;5030773;28;20296;-72
2022/12/01 09:53:55;;;;;;;76.85;16.63;;;;;;;;;;5015129;28;20853;-74
2022/12/01 09:56:23;;;;;;;82.60;19.07;;;;;;;;;;5015155;28;20276;-74
2022/12/01 09:58:51;;;;;;;80.03;17.77;;;;;;;;;;5013954;28;21078;-74
2022/12/01 10:01:19;;;;;;;79.77;17.50;;;;;;;;;;5014704;28;20326;-75
2022/12/01 10:03:48;;;;;;;82.20;16.87;;;;;;;;;;5015000;28;20476;-74
2022/12/01 10:06:18;;;;;;;77.70;16.57;;;;;;;;;;5015076;28;20461;-75
2022/12/01 10:08:51;;;;;;;79.50;17.13;;;;;;;;;;5013890;28;20470;-75
2022/12/01 10:11:25;;;;;;;81.07;17.60;;;;;;;;;;5014895;28;20533;-74
2022/12/01 10:13:52;;;;;;;78.27;16.30;;;;;;;;;;5014627;28;20496;-75
2022/12/01 10:16:25;;;;;;;82.00;18.13;;;;;;;;;;5014682;28;20459;-74
2022/12/01 10:18:56;;;;;;;82.67;16.77;;;;;;;;;;5013670;28;20478;-75
2022/12/01 10:21:30;;;;;;;78.13;17.70;;;;;;;;;;5014620;28;20492;-75
2022/12/01 10:24:05;;;;;;;79.00;18.07;;;;;;;;;;5022324;28;20531;-74
2022/12/01 10:26:35;;;;;;;77.37;17.73;;;;;;;;;;5018570;28;20994;-74
2022/12/01 10:29:09;;;;;;;77.20;16.30;;;;;;;;;;5013571;28;20909;-75
2022/12/01 10:31:40;;;;;;;79.00;17.87;;;;;;;;;;5014468;28;20537;-75
2022/12/01 10:34:08;;;;;;;77.67;17.03;;;;;;;;;;5014338;28;20485;-74
2022/12/01 10:36:36;;;;;;;81.17;17.70;;;;;;;;;;5014158;28;20454;-75
2022/12/01 10:39:06;;;;;;;79.83;16.67;;;;;;;;;;5013625;28;20488;-75
2022/12/01 10:41:36;;;;;;;80.90;17.33;;;;;;;;;;5014265;28;20450;-75
2022/12/01 10:44:04;;;;;;;78.50;16.53;;;;;;;;;;5014339;28;20462;-74
2022/12/01 10:46:35;;;;;;;79.00;16.83;;;;;;;;;;5014035;28;20614;-75
2022/12/01 10:49:08;;;;;;;79.00;17.80;;;;;;;;;;5012790;28;20520;-75
2022/12/01 10:51:46;;;;;;;79.50;17.63;;;;;;;;;;5014152;28;20456;-75
2022/12/01 10:54:15;;;;;;;77.53;16.93;;;;;;;;;;5013763;28;20573;-74
2022/12/01 10:56:44;;;;;;;76.47;16.90;;;;;;;;;;5034012;28;20450;-74
2022/12/01 10:59:25;;;;;;;84.13;18.03;;;;;;;;;;5032971;28;20480;-75
2022/12/01 11:01:53;;;;;;;79.53;17.30;;;;;;;;;;5033647;28;20547;-75
2022/12/01 11:04:27;;;;;;;78.75;16.80;;;;;;;;;;5033649;28;20441;-75
2022/12/01 11:06:54;;;;;;;77.30;16.47;;;;;;;;;;5033730;28;20213;-74
2022/12/01 11:09:25;;;;;;;75.17;14.93;;;;;;;;;;5032449;28;21022;-75
2022/12/01 11:11:55;;;;;;;78.40;17.40;;;;;;;;;;5033405;28;20477;-75
2022/12/01 11:14:24;;;;;;;79.17;17.07;;;;;;;;;;5033617;28;20495;-75
2022/12/01 11:16:53;;;;;;;76.47;16.27;;;;;;;;;;5033500;28;20544;-74
2022/12/01 11:19:28;;;;;;;78.47;16.67;;;;;;;;;;5032478;28;20568;-75
2022/12/01 11:21:56;;;;;;;77.00;17.57;;;;;;;;;;5033546;28;20490;-75
2022/12/01 11:24:43;;;;;;;77.37;16.93;;;;;;;;;;5033067;28;20524;-75
2022/12/01 11:27:18;;;;;;;83.27;17.03;;;;;;;;;;5032317;28;20953;-76
2022/12/01 11:29:46;;;;;;;78.22;16.90;;;;;;;;;;5032561;28;21066;-75
2022/12/01 11:32:18;;;;;;;76.50;16.63;;;;;;;;;;5011676;28;20285;-75
2022/12/01 11:34:50;;;;;;;78.70;16.70;;;;;;;;;;5013251;28;21009;-76
2022/12/01 11:37:18;;;;;;;83.23;18.60;;;;;;;;;;5013503;28;20473;-75
2022/12/01 11:39:47;;;;;;;82.70;18.73;;;;;;;;;;5011925;28;20556;-75
2022/12/01 11:42:19;;;;;;;79.67;18.40;;;;;;;;;;5012872;28;20468;-75
2022/12/01 11:44:48;;;;;;;79.53;16.20;;;;;;;;;;5013157;28;20536;-75
2022/12/01 11:47:16;;;;;;;78.03;15.83;;;;;;;;;;5012895;28;20537;-76
2022/12/01 11:49:46;;;;;;;81.17;17.20;;;;;;;;;;5011989;28;21060;-75
2022/12/01 11:52:23;;;;;;;78.47;15.60;;;;;;;;;;5012471;28;20449;-75
2022/12/01 11:54:59;;;;;;;76.50;15.70;;;;;;;;;;5013043;28;20442;-76
2022/12/01 11:57:26;;;;;;;76.40;17.33;;;;;;;;;;5012851;28;20444;-76
2022/12/01 11:59:53;;;;;;;80.70;17.20;;;;;;;;;;5011568;28;20476;-75
2022/12/01 12:02:27;;;;;;;76.23;16.10;;;;;;;;;;5009144;28;20552;-75
2022/12/01 12:05:01;;;;;;;81.90;18.90;;;;;;;;;;5012796;28;20964;-75
2022/12/01 12:07:34;;;;;;;79.10;16.33;;;;;;;;;;5012741;28;21006;-75
2022/12/01 12:10:11;;;;;;;77.63;16.30;;;;;;;;;;5012030;28;20488;-76
2022/12/01 12:12:47;;;;;;;76.30;15.70;;;;;;;;;;5025937;28;20528;-75
2022/12/01 12:15:20;;;;;;;75.47;15.87;;;;;;;;;;5032352;28;20453;-75
2022/12/01 12:17:57;;;;;;;77.07;17.10;;;;;;;;;;5032359;28;20883;-75
2022/12/01 12:20:32;;;;;;;77.03;16.70;;;;;;;;;;5031348;28;20897;-75
2022/12/01 12:23:06;;;;;;;76.00;16.47;;;;;;;;;;5032037;28;20539;-76
2022/12/01 12:25:43;;;;;;;82.00;18.40;;;;;;;;;;5032223;28;20477;-76
2022/12/01 12:28:20;;;;;;;80.17;15.80;;;;;;;;;;5032144;28;20462;-76
2022/12/01 12:30:51;;;;;;;80.27;17.90;;;;;;;;;;5031303;28;20556;-75
2022/12/01 12:33:27;;;;;;;79.27;17.77;;;;;;;;;;5020378;28;20490;-74
2022/12/01 12:35:58;;;;;;;81.07;18.00;;;;;;;;;;5012241;28;21041;-75
2022/12/01 12:38:31;;;;;;;81.53;18.20;;;;;;;;;;5011952;28;20544;-76
2022/12/01 12:41:04;;;;;;;78.17;16.63;;;;;;;;;;5012049;28;20521;-75
2022/12/01 12:43:35;;;;;;;77.03;16.00;;;;;;;;;;5011851;28;20446;-76
2022/12/01 12:46:06;;;;;;;80.93;18.70;;;;;;;;;;5011970;28;20454;-75
2022/12/01 12:48:51;;;;;;;77.03;16.03;;;;;;;;;;5011310;28;20469;-75
2022/12/01 12:51:19;;;;;;;80.37;15.83;;;;;;;;;;5011779;28;20446;-75
2022/12/01 12:53:49;;;;;;;76.47;17.70;;;;;;;;;;5011776;28;20485;-76
2022/12/01 12:56:20;;;;;;;81.63;17.70;;;;;;;;;;5011896;28;20883;-76
2022/12/01 12:58:53;;;;;;;75.97;15.30;;;;;;;;;;5010893;28;20558;-74
2022/12/01 13:01:22;;;;;;;75.80;16.10;;;;;;;;;;5011765;28;20889;-76
2022/12/01 13:03:59;;;;;;;76.77;14.70;;;;;;;;;;5008367;28;20969;-75
2022/12/01 13:06:28;;;;;;;79.43;16.80;;;;;;;;;;5011718;28;20462;-76
2022/12/01 13:08:59;;;;;;;79.87;17.40;;;;;;;;;;5010861;28;20473;-75
2022/12/01 13:11:31;;;;;;;81.00;17.23;;;;;;;;;;5011957;28;20540;-76
2022/12/01 13:14:01;;;;;;;77.47;16.60;;;;;;;;;;5011289;28;20577;-76
2022/12/01 13:16:31;;;;;;;77.83;16.60;;;;;;;;;;5011850;28;20557;-76
2022/12/01 13:19:03;;;;;;;76.60;16.17;;;;;;;;;;5010798;28;20482;-75
2022/12/01 13:21:35;;;;;;;76.87;14.93;;;;;;;;;;5011538;28;20458;-76
2022/12/01 13:24:04;;;;;;;81.57;17.23;;;;;;;;;;5011095;28;20464;-75
2022/12/01 13:26:35;;;;;;;85.60;17.40;;;;;;;;;;5011728;28;20537;-76
2022/12/01 13:29:05;;;;;;;79.97;18.87;;;;;;;;;;5010794;28;20825;-75
2022/12/01 13:31:42;;;;;;;80.70;17.73;;;;;;;;;;5011264;28;20542;-76
2022/12/01 13:34:18;;;;;;;79.73;18.77;;;;;;;;;;5010814;28;20580;-76
2022/12/01 13:36:49;;;;;;;77.60;18.17;;;;;;;;;;5008239;28;20552;-75
2022/12/01 13:39:18;;;;;;;77.63;16.63;;;;;;;;;;5010717;28;20672;-75
2022/12/01 13:41:47;;;;;;;79.90;18.07;;;;;;;;;;5011377;28;20472;-76
2022/12/01 13:44:23;;;;;;;80.60;18.40;;;;;;;;;;5011095;28;20499;-75
2022/12/01 13:46:51;;;;;;;81.63;17.50;;;;;;;;;;5011585;28;20515;-76
2022/12/01 13:49:32;;;;;;;81.57;18.63;;;;;;;;;;5010399;28;20493;-76
2022/12/01 13:52:27;;;;;;;82.67;19.33;;;;;;;;;;5011263;28;20446;-76
2022/12/01 13:55:01;;;;;;;81.07;17.70;;;;;;;;;;5011439;28;20531;-75
2022/12/01 13:57:31;;;;;;;83.00;17.17;;;;;;;;;;5011272;28;20540;-76
2022/12/01 14:00:22;;;;;;;79.83;16.80;;;;;;;;;;5010577;28;20561;-76
2022/12/01 14:03:04;;;;;;;84.43;19.83;;;;;;;;;;5011022;28;20446;-75
2022/12/01 14:05:45;;;;;;;88.50;25.47;;;;;;;;;;5014778;28;20480;-75
2022/12/01 14:08:14;;;;;;;80.27;16.37;;;;;;;;;;5011688;28;20460;-76
2022/12/01 14:10:42;;;;;;;84.40;20.33;;;;;;;;;;5014121;28;21025;-75
2022/12/01 14:13:20;;;;;;;82.60;16.63;;;;;;;;;;5014024;28;20556;-76
2022/12/01 14:15:53;;;;;;;81.90;18.37;;;;;;;;;;5014887;28;20941;-76
2022/12/01 14:18:38;;;;;;;79.63;18.80;;;;;;;;;;5014730;28;20476;-75
2022/12/01 14:21:07;;;;;;;79.90;18.30;;;;;;;;;;5014767;28;20544;-76
2022/12/01 14:23:35;;;;;;;86.38;20.13;;;;;;;;;;5014246;28;20456;-75
2022/12/01 14:26:13;;;;;;;82.20;19.30;;;;;;;;;;5014784;28;20218;-75
2022/12/01 14:28:59;;;;;;;81.00;17.30;;;;;;;;;;5013652;28;20543;-75
2022/12/01 14:31:49;;;;;;;76.40;17.83;;;;;;;;;;5014539;28;20458;-75
2022/12/01 14:34:17;;;;;;;80.47;17.37;;;;;;;;;;5013831;28;20522;-75
2022/12/01 14:36:47;;;;;;;86.10;20.50;;;;;;;;;;5014279;28;20453;-75